createdAt,value
2023-03-04T00:00:49.350Z,31.50
2023-03-04T00:03:23.172Z,40.90
2023-03-04T00:05:51.108Z,26.90
2023-03-04T00:08:18.926Z,19.00
2023-03-04T00:10:47.066Z,22.70
2023-03-04T00:13:15.196Z,15.90
2023-03-04T00:15:43.025Z,17.30
2023-03-04T00:18:10.907Z,17.30
2023-03-04T00:20:38.802Z,20.80
2023-03-04T00:23:06.767Z,16.50
2023-03-04T00:25:34.706Z,15.40
2023-03-04T00:28:02.500Z,15.70
2023-03-04T00:30:31.754Z,26.20
2023-03-04T00:32:59.881Z,15.60
2023-03-04T00:35:27.867Z,19.20
2023-03-04T00:37:55.894Z,27.00
2023-03-04T00:40:23.971Z,17.20
2023-03-04T00:42:51.920Z,16.40
2023-03-04T00:45:19.864Z,17.00
2023-03-04T00:47:47.902Z,18.40
2023-03-04T00:50:15.956Z,17.00
2023-03-04T00:52:43.968Z,16.80
2023-03-04T00:55:12.030Z,17.10
2023-03-04T00:57:40.371Z,25.90
2023-03-04T01:00:09.166Z,16.40
2023-03-04T01:02:37.174Z,16.10
2023-03-04T01:05:06.446Z,31.30
2023-03-04T01:07:34.303Z,27.30
2023-03-04T01:10:02.362Z,25.60
2023-03-04T01:12:30.340Z,16.20
2023-03-04T01:15:00.434Z,21.40
2023-03-04T01:17:28.317Z,17.70
2023-03-04T01:19:56.377Z,17.10
2023-03-04T01:22:24.277Z,17.90
2023-03-04T01:24:52.286Z,18.10
2023-03-04T01:27:20.179Z,23.20
2023-03-04T01:29:49.067Z,18.90
2023-03-04T01:32:17.023Z,16.70
2023-03-04T01:34:45.162Z,17.70
2023-03-04T01:37:15.951Z,16.70
2023-03-04T01:39:43.875Z,19.70
2023-03-04T01:42:21.401Z,19.20
2023-03-04T01:44:51.277Z,20.30
2023-03-04T01:47:22.443Z,18.60
2023-03-04T01:49:54.749Z,19.90
2023-03-04T01:52:23.686Z,38.70
2023-03-04T01:54:51.893Z,20.50
2023-03-04T01:57:23.763Z,17.90
2023-03-04T02:00:19.679Z,17.40
2023-03-04T02:02:52.427Z,16.30
2023-03-04T02:05:22.346Z,16.80
2023-03-04T02:07:53.331Z,16.20
2023-03-04T02:10:21.479Z,16.90
2023-03-04T02:12:50.104Z,16.90
2023-03-04T02:15:18.781Z,15.80
2023-03-04T02:17:46.775Z,15.00
2023-03-04T02:20:36.674Z,16.30
2023-03-04T02:23:15.201Z,15.30
2023-03-04T02:25:50.637Z,16.60
2023-03-04T02:30:47.188Z,15.80
2023-03-04T02:33:19.012Z,14.00
2023-03-04T02:35:47.536Z,14.50
2023-03-04T02:38:16.073Z,14.90
2023-03-04T02:40:49.168Z,16.00
2023-03-04T02:43:17.300Z,14.70
2023-03-04T02:45:48.492Z,14.40
2023-03-04T02:48:20.341Z,15.40
2023-03-04T02:50:52.494Z,15.10
2023-03-04T02:53:21.861Z,15.20
2023-03-04T02:55:50.339Z,14.80
2023-03-04T02:58:19.153Z,14.60
2023-03-04T03:00:48.008Z,15.20
2023-03-04T03:03:16.195Z,15.00
2023-03-04T03:05:44.634Z,14.50
2023-03-04T03:08:12.766Z,13.90
2023-03-04T03:10:41.459Z,13.60
2023-03-04T03:13:09.497Z,13.70
2023-03-04T03:15:42.291Z,14.10
2023-03-04T03:18:11.516Z,13.30
2023-03-04T03:20:39.356Z,14.00
2023-03-04T03:23:07.410Z,14.10
2023-03-04T03:25:35.409Z,13.20
2023-03-04T03:28:04.258Z,12.40
2023-03-04T03:30:32.455Z,14.00
2023-03-04T03:33:00.425Z,13.80
2023-03-04T03:35:28.396Z,12.00
2023-03-04T03:37:56.488Z,12.50
2023-03-04T03:40:24.482Z,14.00
2023-03-04T03:42:52.250Z,13.50
2023-03-04T03:45:20.350Z,13.60
2023-03-04T03:47:48.240Z,12.00
2023-03-04T03:50:16.579Z,14.20
2023-03-04T03:52:44.475Z,14.70
2023-03-04T03:55:12.485Z,15.10
2023-03-04T03:57:40.326Z,12.60
2023-03-04T04:00:09.886Z,14.10
2023-03-04T04:02:41.027Z,13.90
2023-03-04T04:05:10.095Z,13.80
2023-03-04T04:07:38.640Z,13.80
2023-03-04T04:10:06.766Z,13.80
2023-03-04T04:12:34.793Z,13.80
2023-03-04T04:15:02.586Z,12.50
2023-03-04T04:17:30.601Z,12.60
2023-03-04T04:19:58.506Z,13.90
2023-03-04T04:22:26.502Z,12.50
2023-03-04T04:24:54.417Z,13.20
2023-03-04T04:27:22.781Z,12.80
2023-03-04T04:29:50.947Z,12.60
2023-03-04T04:32:19.026Z,12.50
2023-03-04T04:34:46.987Z,12.70
2023-03-04T04:37:15.029Z,12.80
2023-03-04T04:39:42.905Z,12.40
2023-03-04T04:42:11.908Z,11.30
2023-03-04T04:44:39.896Z,11.90
2023-03-04T04:47:07.958Z,12.10
2023-03-04T04:49:35.929Z,11.00
2023-03-04T04:52:04.114Z,13.20
2023-03-04T04:54:32.260Z,10.30
2023-03-04T04:57:00.171Z,11.40
2023-03-04T04:59:27.985Z,10.30
2023-03-04T05:01:55.881Z,18.90
2023-03-04T05:04:23.803Z,34.70
2023-03-04T05:06:51.686Z,14.10
2023-03-04T05:09:21.083Z,11.50
2023-03-04T05:11:49.389Z,10.80
2023-03-04T05:14:17.295Z,12.40
2023-03-04T05:16:45.224Z,14.00
2023-03-04T05:19:13.275Z,13.10
2023-03-04T05:21:41.311Z,13.60
2023-03-04T05:24:09.245Z,10.90
2023-03-04T05:26:37.154Z,9.50
2023-03-04T05:29:05.104Z,9.60
2023-03-04T05:31:32.942Z,9.60
2023-03-04T05:34:00.963Z,8.70
2023-03-04T05:36:28.987Z,8.30
2023-03-04T05:38:57.208Z,7.60
2023-03-04T05:41:25.885Z,8.00
2023-03-04T05:43:53.934Z,7.20
2023-03-04T05:46:25.906Z,8.30
2023-03-04T05:48:54.768Z,8.90
2023-03-04T05:51:23.297Z,9.40
2023-03-04T05:54:05.482Z,8.80
2023-03-04T05:56:33.767Z,9.10
2023-03-04T05:59:01.899Z,9.60
2023-03-04T06:01:31.510Z,10.50
2023-03-04T06:03:59.660Z,9.90
2023-03-04T06:06:27.523Z,10.10
2023-03-04T06:08:55.410Z,13.80
2023-03-04T06:11:23.462Z,11.40
2023-03-04T06:13:51.253Z,11.00
2023-03-04T06:16:19.216Z,9.90
2023-03-04T06:18:47.342Z,10.40
2023-03-04T06:21:15.252Z,9.00
2023-03-04T06:23:44.456Z,9.40
2023-03-04T06:26:15.656Z,10.20
2023-03-04T06:28:45.068Z,9.50
2023-03-04T06:31:13.278Z,9.90
2023-03-04T06:33:41.236Z,9.50
2023-03-04T06:36:09.208Z,8.80
2023-03-04T06:38:37.138Z,8.70
2023-03-04T06:41:10.590Z,8.40
2023-03-04T06:43:39.084Z,8.90
2023-03-04T06:46:08.301Z,8.50
2023-03-04T06:48:36.757Z,8.70
2023-03-04T06:51:06.888Z,9.00
2023-03-04T06:53:35.315Z,8.20
2023-03-04T06:56:03.945Z,8.60
2023-03-04T06:58:32.234Z,8.60
2023-03-04T07:01:12.227Z,8.60
2023-03-04T07:03:40.539Z,8.50
2023-03-04T07:06:14.170Z,9.90
2023-03-04T07:08:42.903Z,9.20
2023-03-04T07:11:11.118Z,9.30
2023-03-04T07:13:39.571Z,9.20
2023-03-04T07:16:09.948Z,9.80
2023-03-04T07:18:38.978Z,9.50
2023-03-04T07:21:08.148Z,11.30
2023-03-04T07:23:36.717Z,10.80
2023-03-04T07:26:05.382Z,10.10
2023-03-04T07:28:33.928Z,10.50
2023-03-04T07:31:10.054Z,10.10
2023-03-04T07:33:38.112Z,11.70
2023-03-04T07:36:06.263Z,10.50
2023-03-04T07:38:34.414Z,10.30
2023-03-04T07:41:03.248Z,10.30
2023-03-04T07:43:31.062Z,8.80
2023-03-04T07:46:01.822Z,10.50
2023-03-04T07:48:30.117Z,11.90
2023-03-04T07:51:05.065Z,11.00
2023-03-04T07:53:34.010Z,12.90
2023-03-04T07:56:02.870Z,11.40
2023-03-04T07:58:30.915Z,11.40
2023-03-04T08:00:59.251Z,9.50
2023-03-04T08:03:29.692Z,11.20
2023-03-04T08:05:57.780Z,11.50
2023-03-04T08:08:25.808Z,11.40
2023-03-04T08:10:53.798Z,11.90
2023-03-04T08:13:21.689Z,11.10
2023-03-04T08:15:49.857Z,12.40
2023-03-04T08:18:17.771Z,11.00
2023-03-04T08:20:45.925Z,10.30
2023-03-04T08:23:13.879Z,12.70
2023-03-04T08:25:43.043Z,15.50
2023-03-04T08:28:13.387Z,12.10
2023-03-04T08:30:41.928Z,12.00
2023-03-04T08:33:10.515Z,10.30
2023-03-04T08:35:40.044Z,9.30
2023-03-04T08:38:08.072Z,8.20
2023-03-04T08:40:35.919Z,9.00
2023-03-04T08:43:03.727Z,8.30
2023-03-04T08:45:31.789Z,9.50
2023-03-04T08:47:59.694Z,9.70
2023-03-04T08:50:27.666Z,9.80
2023-03-04T08:52:56.081Z,8.20
2023-03-04T08:55:23.997Z,8.10
2023-03-04T08:57:51.854Z,8.50
2023-03-04T09:00:21.312Z,9.00
2023-03-04T09:02:49.557Z,10.60
2023-03-04T09:05:17.384Z,10.00
2023-03-04T09:07:45.408Z,8.40
2023-03-04T09:10:13.895Z,11.00
2023-03-04T09:12:41.868Z,15.90
2023-03-04T09:15:11.872Z,9.00
2023-03-04T09:17:40.911Z,9.30
2023-03-04T09:20:10.611Z,10.40
2023-03-04T09:22:39.668Z,9.50
2023-03-04T09:25:12.060Z,8.00
2023-03-04T09:27:41.519Z,7.00
2023-03-04T09:30:10.410Z,21.30
2023-03-04T09:32:38.728Z,9.10
2023-03-04T09:35:07.225Z,13.80
2023-03-04T09:37:35.082Z,12.70
2023-03-04T09:40:04.281Z,8.30
2023-03-04T09:42:47.659Z,9.00
2023-03-04T09:45:23.591Z,12.30
2023-03-04T09:47:53.704Z,12.90
2023-03-04T09:50:22.270Z,13.40
2023-03-04T09:53:18.782Z,7.30
2023-03-04T09:55:51.459Z,8.10
2023-03-04T09:58:44.799Z,7.00
2023-03-04T10:01:22.517Z,8.20
2023-03-04T10:03:59.792Z,10.20
2023-03-04T10:06:28.760Z,7.20
2023-03-04T10:09:04.414Z,7.60
2023-03-04T10:11:48.725Z,182.50
2023-03-04T10:14:22.466Z,197.80
2023-03-04T10:17:12.761Z,190.00
2023-03-04T10:19:58.086Z,18.20
2023-03-04T10:22:36.877Z,24.80
2023-03-04T10:25:19.342Z,24.40
2023-03-04T10:27:55.524Z,26.30
2023-03-04T10:30:26.127Z,11.60
2023-03-04T10:32:55.863Z,31.10
2023-03-04T10:35:32.132Z,24.30
2023-03-04T10:38:03.482Z,18.10
2023-03-04T10:40:38.874Z,19.80
2023-03-04T10:43:13.804Z,130.10
2023-03-04T10:45:42.249Z,43.00
2023-03-04T10:48:29.395Z,37.40
2023-03-04T10:51:22.072Z,20.20
2023-03-04T10:54:00.113Z,61.90
2023-03-04T10:56:32.619Z,34.20
2023-03-04T10:59:36.133Z,15.00
2023-03-04T11:02:30.847Z,15.50
2023-03-04T11:05:18.969Z,7.70
2023-03-04T11:07:57.299Z,27.50
2023-03-04T11:10:39.482Z,27.50
2023-03-04T11:13:13.094Z,17.20
2023-03-04T11:15:52.185Z,18.10
2023-03-04T11:18:26.590Z,19.50
2023-03-04T11:20:55.653Z,8.00
2023-03-04T11:23:33.914Z,10.90
2023-03-04T11:26:11.549Z,8.70
2023-03-04T11:28:46.820Z,7.80
2023-03-04T11:31:20.802Z,10.20
2023-03-04T11:33:49.011Z,5.30
2023-03-04T11:36:33.259Z,16.40
2023-03-04T11:39:08.733Z,8.00
2023-03-04T11:41:48.057Z,5.70
2023-03-04T11:44:16.160Z,10.40
2023-03-04T11:46:53.254Z,6.30
2023-03-04T11:49:33.158Z,9.40
2023-03-04T11:52:18.890Z,4.20
2023-03-04T11:54:49.530Z,6.90
2023-03-04T11:57:23.174Z,18.70
2023-03-04T12:00:17.317Z,35.00
2023-03-04T12:03:13.158Z,29.50
2023-03-04T12:05:41.271Z,14.60
2023-03-04T12:08:32.519Z,9.00
2023-03-04T12:11:20.449Z,19.60
2023-03-04T12:14:10.458Z,8.80
2023-03-04T12:17:20.262Z,12.80
2023-03-04T12:19:56.603Z,103.00
2023-03-04T12:22:45.633Z,95.30
2023-03-04T12:25:31.686Z,42.80
2023-03-04T12:28:11.590Z,48.20
2023-03-04T12:30:57.892Z,15.90
2023-03-04T12:34:03.253Z,6.00
2023-03-04T12:39:36.751Z,41.60
2023-03-04T12:42:29.813Z,34.60
2023-03-04T12:45:20.514Z,5.50
2023-03-04T12:48:14.363Z,29.70
2023-03-04T12:51:17.450Z,11.60
2023-03-04T12:54:17.713Z,18.40
2023-03-04T12:56:52.457Z,16.00
2023-03-04T12:59:22.252Z,8.30
2023-03-04T13:02:04.907Z,6.00
2023-03-04T13:04:59.847Z,10.80
2023-03-04T13:07:43.936Z,12.70
2023-03-04T13:10:14.785Z,15.40
2023-03-04T13:13:29.268Z,6.90
2023-03-04T13:16:06.739Z,4.30
2023-03-04T13:18:36.949Z,5.60
2023-03-04T13:21:12.425Z,13.40
2023-03-04T13:23:40.978Z,7.90
2023-03-04T13:26:31.809Z,19.00
2023-03-04T13:29:18.053Z,35.50
2023-03-04T13:32:11.234Z,15.10
2023-03-04T13:34:56.144Z,59.00
2023-03-04T13:37:33.325Z,74.70
2023-03-04T13:40:34.129Z,17.30
2023-03-04T13:43:41.099Z,26.70
2023-03-04T13:46:18.666Z,26.70
2023-03-04T13:49:02.487Z,14.50
2023-03-04T13:51:44.210Z,5.50
2023-03-04T13:54:31.292Z,8.00
2023-03-04T13:57:01.896Z,10.00
2023-03-04T13:59:38.788Z,16.00
2023-03-04T14:02:20.199Z,11.00
2023-03-04T14:04:54.396Z,6.90
2023-03-04T14:07:33.438Z,7.90
2023-03-04T14:10:07.579Z,6.00
2023-03-04T14:12:40.176Z,14.30
2023-03-04T14:15:14.137Z,13.00
2023-03-04T14:17:48.297Z,8.10
2023-03-04T14:20:38.438Z,13.20
2023-03-04T14:23:31.466Z,15.00
2023-03-04T14:26:17.897Z,12.40
2023-03-04T14:28:49.242Z,18.40
2023-03-04T14:31:23.940Z,36.30
2023-03-04T14:33:59.944Z,18.90
2023-03-04T14:36:34.317Z,13.40
2023-03-04T14:39:05.988Z,6.20
2023-03-04T14:41:38.085Z,15.10
2023-03-04T14:44:24.639Z,14.10
2023-03-04T14:47:07.625Z,20.60
2023-03-04T14:49:37.742Z,11.60
2023-03-04T14:52:06.912Z,15.70
2023-03-04T14:54:40.498Z,28.20
2023-03-04T14:57:26.089Z,31.80
2023-03-04T14:59:54.550Z,17.80
2023-03-04T15:02:39.523Z,12.90
2023-03-04T15:05:25.913Z,17.90
2023-03-04T15:08:07.022Z,21.50
2023-03-04T15:10:37.926Z,10.30
2023-03-04T15:13:08.638Z,17.50
2023-03-04T15:15:45.321Z,13.60
2023-03-04T15:18:30.254Z,11.20
2023-03-04T15:21:01.848Z,8.60
2023-03-04T15:23:32.082Z,7.50
2023-03-04T15:26:03.495Z,12.00
2023-03-04T15:28:36.981Z,11.30
2023-03-04T15:31:05.925Z,26.70
2023-03-04T15:33:34.424Z,9.40
2023-03-04T15:36:03.267Z,15.10
2023-03-04T15:38:31.445Z,9.30
2023-03-04T15:40:59.700Z,15.40
2023-03-04T15:43:27.919Z,17.20
2023-03-04T15:45:55.874Z,20.80
2023-03-04T15:48:23.823Z,11.40
2023-03-04T15:50:59.417Z,18.90
2023-03-04T15:53:49.674Z,14.30
2023-03-04T15:56:20.579Z,89.40
2023-03-04T15:58:54.316Z,10.50
2023-03-04T16:01:23.754Z,15.10
2023-03-04T16:03:53.801Z,18.50
2023-03-04T16:06:24.914Z,12.10
2023-03-04T16:08:52.969Z,17.50
2023-03-04T16:11:24.214Z,18.40
2023-03-04T16:13:52.368Z,257.10
2023-03-04T16:16:21.061Z,77.00
2023-03-04T16:18:49.310Z,24.00
2023-03-04T16:21:20.372Z,15.50
2023-03-04T16:23:50.129Z,18.50
2023-03-04T16:26:20.823Z,17.50
2023-03-04T16:28:49.507Z,15.60
2023-03-04T16:31:17.953Z,7.80
2023-03-04T16:33:46.042Z,11.70
2023-03-04T16:36:27.046Z,16.50
2023-03-04T16:38:57.810Z,11.10
2023-03-04T16:41:30.575Z,22.80
2023-03-04T16:44:00.708Z,24.20
2023-03-04T16:46:30.236Z,15.80
2023-03-04T16:48:58.551Z,18.10
2023-03-04T16:51:26.596Z,13.10
2023-03-04T16:54:00.357Z,12.50
2023-03-04T16:56:29.060Z,23.30
2023-03-04T16:58:57.066Z,18.30
2023-03-04T17:01:34.129Z,14.30
2023-03-04T17:04:02.080Z,23.00
2023-03-04T17:06:30.089Z,21.10
2023-03-04T17:08:58.136Z,14.90
2023-03-04T17:11:26.139Z,22.80
2023-03-04T17:13:53.971Z,21.60
2023-03-04T17:16:21.977Z,15.50
2023-03-04T17:18:50.636Z,51.60
2023-03-04T17:21:24.634Z,33.50
2023-03-04T17:23:53.841Z,196.70
2023-03-04T17:26:22.750Z,288.20
2023-03-04T17:28:51.729Z,83.40
2023-03-04T17:31:20.783Z,50.90
2023-03-04T17:33:49.306Z,28.30
2023-03-04T17:36:18.972Z,20.30
2023-03-04T17:38:47.325Z,19.20
2023-03-04T17:41:18.340Z,25.10
2023-03-04T17:43:50.310Z,26.00
2023-03-04T17:46:20.866Z,14.30
2023-03-04T17:48:49.175Z,12.60
2023-03-04T17:51:17.117Z,14.70
2023-03-04T17:53:44.889Z,18.80
2023-03-04T17:56:13.336Z,16.80
2023-03-04T17:58:42.117Z,23.20
2023-03-04T18:01:20.817Z,18.80
2023-03-04T18:03:49.388Z,18.90
2023-03-04T18:06:18.345Z,14.80
2023-03-04T18:08:46.413Z,13.90
2023-03-04T18:11:14.802Z,16.30
2023-03-04T18:13:44.205Z,21.60
2023-03-04T18:16:15.327Z,21.80
2023-03-04T18:18:44.643Z,38.00
2023-03-04T18:21:13.712Z,22.40
2023-03-04T18:23:41.592Z,32.40
2023-03-04T18:26:09.811Z,36.50
2023-03-04T18:28:37.787Z,44.00
2023-03-04T18:31:06.007Z,48.30
2023-03-04T18:33:35.237Z,55.50
2023-03-04T18:36:06.572Z,54.80
2023-03-04T18:38:34.527Z,18.90
2023-03-04T18:41:05.282Z,13.00
2023-03-04T18:43:34.330Z,33.40
2023-03-04T18:46:09.231Z,21.00
2023-03-04T18:48:46.826Z,11.10
2023-03-04T18:51:14.790Z,10.70
2023-03-04T18:53:42.859Z,19.60
2023-03-04T18:56:16.962Z,33.10
2023-03-04T18:58:49.369Z,40.90
2023-03-04T19:01:20.694Z,25.90
2023-03-04T19:03:49.008Z,54.80
2023-03-04T19:06:17.680Z,73.00
2023-03-04T19:08:45.593Z,57.90
2023-03-04T19:11:13.509Z,70.00
2023-03-04T19:13:41.839Z,61.00
2023-03-04T19:16:09.935Z,96.40
2023-03-04T19:18:37.962Z,51.30
2023-03-04T19:21:06.144Z,45.50
2023-03-04T19:23:34.046Z,101.70
2023-03-04T19:26:02.419Z,67.10
2023-03-04T19:28:30.451Z,101.60
2023-03-04T19:30:59.378Z,49.20
2023-03-04T19:33:27.254Z,87.60
2023-03-04T19:35:55.242Z,67.80
2023-03-04T19:38:23.266Z,59.90
2023-03-04T19:40:51.151Z,47.50
2023-03-04T19:43:19.098Z,36.10
2023-03-04T19:45:57.640Z,29.40
2023-03-04T19:48:25.573Z,22.70
2023-03-04T19:50:53.637Z,43.20
2023-03-04T19:53:22.235Z,65.40
2023-03-04T19:55:50.211Z,81.00
2023-03-04T19:58:18.906Z,206.80
2023-03-04T20:00:47.136Z,160.00
2023-03-04T20:03:15.153Z,64.60
2023-03-04T20:05:43.036Z,39.40
2023-03-04T20:08:10.999Z,44.30
2023-03-04T20:10:39.182Z,69.00
2023-03-04T20:13:09.201Z,53.50
2023-03-04T20:15:37.724Z,65.40
2023-03-04T20:18:05.720Z,97.10
2023-03-04T20:20:33.808Z,44.70
2023-03-04T20:23:01.818Z,199.30
2023-03-04T20:25:32.022Z,77.40
2023-03-04T20:27:59.929Z,34.30
2023-03-04T20:30:28.303Z,37.40
2023-03-04T20:32:56.379Z,39.70
2023-03-04T20:35:24.322Z,50.70
2023-03-04T20:37:52.348Z,54.80
2023-03-04T20:40:20.528Z,55.70
2023-03-04T20:42:48.419Z,51.70
2023-03-04T20:45:16.551Z,67.00
2023-03-04T20:47:44.476Z,68.70
2023-03-04T20:50:12.615Z,55.00
2023-03-04T20:52:40.550Z,53.80
2023-03-04T20:55:09.039Z,67.20
2023-03-04T20:57:36.907Z,85.10
2023-03-04T21:00:05.614Z,79.60
2023-03-04T21:02:33.600Z,79.10
2023-03-04T21:05:01.754Z,68.60
2023-03-04T21:07:30.886Z,61.00
2023-03-04T21:09:58.958Z,56.00
2023-03-04T21:12:27.080Z,51.30
2023-03-04T21:14:54.942Z,46.30
2023-03-04T21:17:24.647Z,40.40
2023-03-04T21:19:52.563Z,43.80
2023-03-04T21:22:21.142Z,43.30
2023-03-04T21:24:49.618Z,42.30
2023-03-04T21:27:18.039Z,44.60
2023-03-04T21:29:46.140Z,40.20
2023-03-04T21:32:24.228Z,46.80
2023-03-04T21:34:54.801Z,47.70
2023-03-04T21:37:24.992Z,44.80
2023-03-04T21:39:53.810Z,40.30
2023-03-04T21:42:21.793Z,42.60
2023-03-04T21:44:51.421Z,52.80
2023-03-04T21:47:21.430Z,59.00
2023-03-04T21:49:49.669Z,54.00
2023-03-04T21:52:20.188Z,49.10
2023-03-04T21:54:48.275Z,54.70
2023-03-04T21:57:16.828Z,54.80
2023-03-04T21:59:45.328Z,51.00
2023-03-04T22:02:19.139Z,49.30
2023-03-04T22:04:47.595Z,48.70
2023-03-04T22:07:15.597Z,49.40
2023-03-04T22:09:43.414Z,74.70
2023-03-04T22:12:11.433Z,100.40
2023-03-04T22:14:39.321Z,59.30
2023-03-04T22:17:07.576Z,58.90
2023-03-04T22:19:35.718Z,46.00
2023-03-04T22:22:03.698Z,53.40
2023-03-04T22:24:31.678Z,64.90
2023-03-04T22:27:00.054Z,61.10
2023-03-04T22:29:27.963Z,56.70
2023-03-04T22:31:55.840Z,39.40
2023-03-04T22:34:24.218Z,54.10
2023-03-04T22:36:52.009Z,43.30
2023-03-04T22:39:19.989Z,36.00
2023-03-04T22:41:48.185Z,33.40
2023-03-04T22:44:17.793Z,36.50
2023-03-04T22:46:45.809Z,36.60
2023-03-04T22:49:14.695Z,37.50
2023-03-04T22:51:44.378Z,34.70
2023-03-04T22:54:15.025Z,40.90
2023-03-04T22:56:43.586Z,37.80
2023-03-04T22:59:11.904Z,50.50
2023-03-04T23:01:40.100Z,92.30
2023-03-04T23:04:08.174Z,73.10
2023-03-04T23:06:36.423Z,61.10
2023-03-04T23:09:05.084Z,46.60
2023-03-04T23:11:39.554Z,55.20
2023-03-04T23:14:08.787Z,32.90
2023-03-04T23:16:42.617Z,24.10
2023-03-04T23:19:16.765Z,39.60
2023-03-04T23:21:44.884Z,44.90
2023-03-04T23:24:13.914Z,71.20
2023-03-04T23:26:42.700Z,105.20
2023-03-04T23:29:13.701Z,62.90
2023-03-04T23:31:42.700Z,55.70
2023-03-04T23:34:11.447Z,49.00
2023-03-04T23:36:39.544Z,38.10
2023-03-04T23:39:08.672Z,57.50
2023-03-04T23:41:36.759Z,55.40
2023-03-04T23:44:04.973Z,42.00
2023-03-04T23:46:32.810Z,37.30
2023-03-04T23:49:00.883Z,85.10
2023-03-04T23:51:29.965Z,102.70
2023-03-04T23:53:59.396Z,98.70
2023-03-04T23:56:30.001Z,34.90
2023-03-04T23:58:59.197Z,34.00
